sensor_id;sensor_type;location;lat;lon;timestamp;pressure;altitude;pressure_sealevel;temperature;humidity
45872;BME280;32333;55.844;-3.210;2023-09-19T00:01:51;97577.77;;;6.12;100.00
45872;BME280;32333;55.844;-3.210;2023-09-19T00:04:18;97575.09;;;6.94;100.00
45872;BME280;32333;55.844;-3.210;2023-09-19T00:06:45;97577.19;;;6.49;100.00
45872;BME280;32333;55.844;-3.210;2023-09-19T00:09:13;97581.89;;;5.59;100.00
45872;BME280;32333;55.844;-3.210;2023-09-19T00:11:42;97584.29;;;6.44;100.00
45872;BME280;32333;55.844;-3.210;2023-09-19T00:14:35;97591.78;;;7.15;100.00
45872;BME280;32333;55.844;-3.210;2023-09-19T00:17:03;97590.16;;;6.51;100.00
45872;BME280;32333;55.844;-3.210;2023-09-19T00:19:30;97587.62;;;5.35;100.00
45872;BME280;32333;55.844;-3.210;2023-09-19T00:21:59;97578.09;;;8.25;100.00
45872;BME280;32333;55.844;-3.210;2023-09-19T00:24:26;97568.46;;;8.29;100.00
45872;BME280;32333;55.844;-3.210;2023-09-19T00:26:54;97568.24;;;7.91;100.00
45872;BME280;32333;55.844;-3.210;2023-09-19T00:29:22;97566.98;;;8.29;100.00
45872;BME280;32333;55.844;-3.210;2023-09-19T00:31:51;97566.42;;;7.88;100.00
45872;BME280;32333;55.844;-3.210;2023-09-19T00:34:18;97564.63;;;8.01;100.00
45872;BME280;32333;55.844;-3.210;2023-09-19T00:36:45;97563.80;;;7.68;100.00
45872;BME280;32333;55.844;-3.210;2023-09-19T00:39:13;97562.45;;;7.77;100.00
45872;BME280;32333;55.844;-3.210;2023-09-19T00:41:40;97560.75;;;8.33;100.00
45872;BME280;32333;55.844;-3.210;2023-09-19T00:44:36;97555.51;;;8.05;100.00
45872;BME280;32333;55.844;-3.210;2023-09-19T00:47:03;97551.64;;;7.44;100.00
45872;BME280;32333;55.844;-3.210;2023-09-19T00:49:32;97542.79;;;7.25;100.00
45872;BME280;32333;55.844;-3.210;2023-09-19T00:52:00;97541.71;;;7.39;100.00
45872;BME280;32333;55.844;-3.210;2023-09-19T00:54:28;97540.82;;;6.49;100.00
45872;BME280;32333;55.844;-3.210;2023-09-19T00:56:56;97545.45;;;7.12;100.00
45872;BME280;32333;55.844;-3.210;2023-09-19T00:59:23;97546.12;;;6.45;100.00
45872;BME280;32333;55.844;-3.210;2023-09-19T01:01:52;97545.26;;;6.78;100.00
45872;BME280;32333;55.844;-3.210;2023-09-19T01:04:20;97549.02;;;6.79;100.00
45872;BME280;32333;55.844;-3.210;2023-09-19T01:06:48;97551.23;;;6.79;100.00
45872;BME280;32333;55.844;-3.210;2023-09-19T01:09:16;97553.44;;;6.15;100.00
45872;BME280;32333;55.844;-3.210;2023-09-19T01:11:47;97551.68;;;7.08;100.00
45872;BME280;32333;55.844;-3.210;2023-09-19T01:14:44;97549.28;;;7.30;100.00
45872;BME280;32333;55.844;-3.210;2023-09-19T01:17:24;97551.53;;;7.14;100.00
45872;BME280;32333;55.844;-3.210;2023-09-19T01:20:15;97552.38;;;7.40;100.00
45872;BME280;32333;55.844;-3.210;2023-09-19T01:22:53;97551.59;;;6.70;100.00
45872;BME280;32333;55.844;-3.210;2023-09-19T01:26:07;97552.58;;;7.73;100.00
45872;BME280;32333;55.844;-3.210;2023-09-19T01:28:43;97555.27;;;7.47;100.00
45872;BME280;32333;55.844;-3.210;2023-09-19T01:31:12;97547.70;;;7.18;100.00
45872;BME280;32333;55.844;-3.210;2023-09-19T01:33:58;97549.14;;;6.88;100.00
45872;BME280;32333;55.844;-3.210;2023-09-19T01:36:28;97543.47;;;7.40;100.00
45872;BME280;32333;55.844;-3.210;2023-09-19T01:38:57;97542.16;;;7.44;100.00
45872;BME280;32333;55.844;-3.210;2023-09-19T01:41:32;97541.14;;;6.44;100.00
45872;BME280;32333;55.844;-3.210;2023-09-19T01:47:31;97539.93;;;6.93;100.00
45872;BME280;32333;55.844;-3.210;2023-09-19T01:50:06;97549.14;;;6.24;100.00
45872;BME280;32333;55.844;-3.210;2023-09-19T01:52:43;97543.93;;;6.72;100.00
45872;BME280;32333;55.844;-3.210;2023-09-19T01:55:14;97550.04;;;6.47;100.00
45872;BME280;32333;55.844;-3.210;2023-09-19T01:57:51;97543.31;;;6.58;100.00
45872;BME280;32333;55.844;-3.210;2023-09-19T02:00:22;97543.25;;;6.67;100.00
45872;BME280;32333;55.844;-3.210;2023-09-19T02:02:52;97538.53;;;6.77;100.00
45872;BME280;32333;55.844;-3.210;2023-09-19T02:05:24;97531.05;;;6.57;100.00
45872;BME280;32333;55.844;-3.210;2023-09-19T02:07:53;97535.15;;;6.92;100.00
45872;BME280;32333;55.844;-3.210;2023-09-19T02:10:21;97534.85;;;6.33;100.00
45872;BME280;32333;55.844;-3.210;2023-09-19T02:14:36;97529.87;;;7.51;100.00
45872;BME280;32333;55.844;-3.210;2023-09-19T02:17:03;97537.94;;;7.09;100.00
45872;BME280;32333;55.844;-3.210;2023-09-19T02:19:33;97516.78;;;7.39;100.00
45872;BME280;32333;55.844;-3.210;2023-09-19T02:22:00;97514.52;;;7.13;100.00
45872;BME280;32333;55.844;-3.210;2023-09-19T02:24:27;97507.72;;;7.21;100.00
45872;BME280;32333;55.844;-3.210;2023-09-19T02:26:55;97511.09;;;7.42;100.00
45872;BME280;32333;55.844;-3.210;2023-09-19T02:29:23;97512.34;;;7.55;100.00
45872;BME280;32333;55.844;-3.210;2023-09-19T02:31:50;97513.31;;;7.25;100.00
45872;BME280;32333;55.844;-3.210;2023-09-19T02:34:18;97496.41;;;7.77;100.00
45872;BME280;32333;55.844;-3.210;2023-09-19T02:36:45;97481.03;;;8.15;100.00
45872;BME280;32333;55.844;-3.210;2023-09-19T02:39:13;97474.73;;;8.80;100.00
45872;BME280;32333;55.844;-3.210;2023-09-19T02:41:40;97469.29;;;8.75;100.00
45872;BME280;32333;55.844;-3.210;2023-09-19T02:44:36;97466.64;;;7.72;100.00
45872;BME280;32333;55.844;-3.210;2023-09-19T02:47:04;97464.72;;;8.37;100.00
45872;BME280;32333;55.844;-3.210;2023-09-19T02:49:31;97460.46;;;8.59;100.00
45872;BME280;32333;55.844;-3.210;2023-09-19T02:51:59;97449.03;;;7.89;100.00
45872;BME280;32333;55.844;-3.210;2023-09-19T02:54:26;97459.84;;;7.99;100.00
45872;BME280;32333;55.844;-3.210;2023-09-19T02:56:54;97475.16;;;8.24;100.00
45872;BME280;32333;55.844;-3.210;2023-09-19T02:59:22;97474.38;;;8.22;100.00
45872;BME280;32333;55.844;-3.210;2023-09-19T03:01:50;97476.16;;;8.61;100.00
45872;BME280;32333;55.844;-3.210;2023-09-19T03:04:17;97476.00;;;7.19;100.00
45872;BME280;32333;55.844;-3.210;2023-09-19T03:06:44;97461.92;;;7.31;100.00
45872;BME280;32333;55.844;-3.210;2023-09-19T03:09:12;97446.62;;;8.36;100.00
45872;BME280;32333;55.844;-3.210;2023-09-19T03:11:39;97438.68;;;8.80;100.00
45872;BME280;32333;55.844;-3.210;2023-09-19T03:14:35;97415.80;;;8.94;100.00
45872;BME280;32333;55.844;-3.210;2023-09-19T03:17:03;97419.86;;;9.01;100.00
45872;BME280;32333;55.844;-3.210;2023-09-19T03:19:30;97424.29;;;7.36;100.00
45872;BME280;32333;55.844;-3.210;2023-09-19T03:21:58;97415.98;;;7.94;100.00
45872;BME280;32333;55.844;-3.210;2023-09-19T03:24:26;97421.13;;;7.78;100.00
45872;BME280;32333;55.844;-3.210;2023-09-19T03:26:53;97428.87;;;7.74;100.00
45872;BME280;32333;55.844;-3.210;2023-09-19T03:29:21;97428.10;;;6.92;100.00
45872;BME280;32333;55.844;-3.210;2023-09-19T03:31:48;97416.76;;;7.41;100.00
45872;BME280;32333;55.844;-3.210;2023-09-19T03:34:15;97410.88;;;7.56;100.00
45872;BME280;32333;55.844;-3.210;2023-09-19T03:36:43;97403.84;;;7.78;100.00
45872;BME280;32333;55.844;-3.210;2023-09-19T03:39:11;97387.46;;;6.80;100.00
45872;BME280;32333;55.844;-3.210;2023-09-19T03:41:38;97381.75;;;6.77;100.00
45872;BME280;32333;55.844;-3.210;2023-09-19T03:44:35;97388.10;;;6.63;100.00
45872;BME280;32333;55.844;-3.210;2023-09-19T03:47:03;97381.69;;;6.86;100.00
45872;BME280;32333;55.844;-3.210;2023-09-19T03:49:30;97378.95;;;6.39;100.00
45872;BME280;32333;55.844;-3.210;2023-09-19T03:51:57;97383.70;;;6.18;100.00
45872;BME280;32333;55.844;-3.210;2023-09-19T03:54:25;97379.45;;;6.58;100.00
45872;BME280;32333;55.844;-3.210;2023-09-19T03:56:53;97357.91;;;6.58;100.00
45872;BME280;32333;55.844;-3.210;2023-09-19T03:59:20;97342.28;;;6.46;100.00
45872;BME280;32333;55.844;-3.210;2023-09-19T04:01:48;97345.48;;;6.92;100.00
45872;BME280;32333;55.844;-3.210;2023-09-19T04:04:16;97336.93;;;6.97;100.00
45872;BME280;32333;55.844;-3.210;2023-09-19T04:06:43;97340.85;;;6.69;100.00
45872;BME280;32333;55.844;-3.210;2023-09-19T04:09:11;97337.49;;;7.02;100.00
45872;BME280;32333;55.844;-3.210;2023-09-19T04:11:39;97331.23;;;7.85;100.00
45872;BME280;32333;55.844;-3.210;2023-09-19T04:14:36;97323.19;;;7.35;100.00
45872;BME280;32333;55.844;-3.210;2023-09-19T04:17:04;97325.37;;;6.90;100.00
45872;BME280;32333;55.844;-3.210;2023-09-19T04:19:32;97323.38;;;7.32;100.00
45872;BME280;32333;55.844;-3.210;2023-09-19T04:21:59;97320.27;;;7.44;100.00
45872;BME280;32333;55.844;-3.210;2023-09-19T04:24:28;97312.79;;;7.66;100.00
45872;BME280;32333;55.844;-3.210;2023-09-19T04:26:55;97306.47;;;7.57;100.00
45872;BME280;32333;55.844;-3.210;2023-09-19T04:29:23;97297.44;;;7.73;100.00
45872;BME280;32333;55.844;-3.210;2023-09-19T04:31:51;97297.60;;;7.33;100.00
45872;BME280;32333;55.844;-3.210;2023-09-19T04:34:18;97298.07;;;7.45;100.00
45872;BME280;32333;55.844;-3.210;2023-09-19T04:36:46;97292.53;;;7.58;100.00
45872;BME280;32333;55.844;-3.210;2023-09-19T04:39:14;97289.52;;;7.80;100.00
45872;BME280;32333;55.844;-3.210;2023-09-19T04:41:41;97281.79;;;7.30;100.00
45872;BME280;32333;55.844;-3.210;2023-09-19T04:44:37;97276.02;;;7.59;100.00
45872;BME280;32333;55.844;-3.210;2023-09-19T04:47:05;97273.73;;;7.69;100.00
45872;BME280;32333;55.844;-3.210;2023-09-19T04:49:35;97274.35;;;7.23;100.00
45872;BME280;32333;55.844;-3.210;2023-09-19T04:52:03;97271.95;;;7.10;100.00
45872;BME280;32333;55.844;-3.210;2023-09-19T04:54:31;97270.36;;;7.32;100.00
45872;BME280;32333;55.844;-3.210;2023-09-19T04:56:58;97277.92;;;6.86;100.00
45872;BME280;32333;55.844;-3.210;2023-09-19T04:59:26;97269.27;;;6.70;100.00
45872;BME280;32333;55.844;-3.210;2023-09-19T05:01:53;97270.68;;;6.38;100.00
45872;BME280;32333;55.844;-3.210;2023-09-19T05:04:22;97266.26;;;6.66;100.00
45872;BME280;32333;55.844;-3.210;2023-09-19T05:06:49;97266.65;;;6.50;100.00
45872;BME280;32333;55.844;-3.210;2023-09-19T05:09:16;97272.34;;;6.49;100.00
45872;BME280;32333;55.844;-3.210;2023-09-19T05:11:43;97274.41;;;6.14;100.00
45872;BME280;32333;55.844;-3.210;2023-09-19T05:14:35;97266.92;;;6.36;100.00
45872;BME280;32333;55.844;-3.210;2023-09-19T05:17:04;97268.56;;;5.84;100.00
45872;BME280;32333;55.844;-3.210;2023-09-19T05:19:31;97266.60;;;6.18;100.00
45872;BME280;32333;55.844;-3.210;2023-09-19T05:21:59;97268.81;;;6.21;100.00
45872;BME280;32333;55.844;-3.210;2023-09-19T05:24:27;97259.70;;;5.79;100.00
45872;BME280;32333;55.844;-3.210;2023-09-19T05:26:54;97260.07;;;6.04;100.00
45872;BME280;32333;55.844;-3.210;2023-09-19T05:29:21;97259.64;;;5.77;100.00
45872;BME280;32333;55.844;-3.210;2023-09-19T05:31:50;97262.14;;;5.61;100.00
45872;BME280;32333;55.844;-3.210;2023-09-19T05:34:17;97258.57;;;6.31;100.00
45872;BME280;32333;55.844;-3.210;2023-09-19T05:36:44;97258.96;;;5.86;100.00
45872;BME280;32333;55.844;-3.210;2023-09-19T05:39:11;97259.87;;;6.12;100.00
45872;BME280;32333;55.844;-3.210;2023-09-19T05:41:41;97263.33;;;6.14;100.00
45872;BME280;32333;55.844;-3.210;2023-09-19T05:44:37;97255.61;;;6.12;100.00
45872;BME280;32333;55.844;-3.210;2023-09-19T05:47:05;97250.39;;;5.95;100.00
45872;BME280;32333;55.844;-3.210;2023-09-19T05:49:32;97250.42;;;6.80;100.00
45872;BME280;32333;55.844;-3.210;2023-09-19T05:52:00;97238.70;;;5.96;100.00
45872;BME280;32333;55.844;-3.210;2023-09-19T05:54:28;97230.77;;;6.20;100.00
45872;BME280;32333;55.844;-3.210;2023-09-19T05:56:56;97227.72;;;6.51;100.00
45872;BME280;32333;55.844;-3.210;2023-09-19T05:59:23;97234.98;;;6.35;100.00
45872;BME280;32333;55.844;-3.210;2023-09-19T06:01:50;97230.27;;;6.13;100.00
45872;BME280;32333;55.844;-3.210;2023-09-19T06:04:18;97228.44;;;6.27;100.00
45872;BME280;32333;55.844;-3.210;2023-09-19T06:06:46;97229.42;;;6.49;100.00
45872;BME280;32333;55.844;-3.210;2023-09-19T06:09:13;97233.45;;;6.84;100.00
45872;BME280;32333;55.844;-3.210;2023-09-19T06:11:41;97234.37;;;6.74;100.00
45872;BME280;32333;55.844;-3.210;2023-09-19T06:14:36;97240.39;;;7.53;100.00
45872;BME280;32333;55.844;-3.210;2023-09-19T06:17:04;97242.30;;;6.98;100.00
45872;BME280;32333;55.844;-3.210;2023-09-19T06:19:31;97234.79;;;7.35;100.00
45872;BME280;32333;55.844;-3.210;2023-09-19T06:22:01;97224.05;;;6.58;100.00
45872;BME280;32333;55.844;-3.210;2023-09-19T06:24:30;97209.41;;;7.01;100.00
45872;BME280;32333;55.844;-3.210;2023-09-19T06:26:57;97205.43;;;6.86;100.00
45872;BME280;32333;55.844;-3.210;2023-09-19T06:29:24;97203.09;;;7.18;100.00
45872;BME280;32333;55.844;-3.210;2023-09-19T06:31:52;97201.35;;;6.79;100.00
45872;BME280;32333;55.844;-3.210;2023-09-19T06:34:19;97194.69;;;6.66;100.00
45872;BME280;32333;55.844;-3.210;2023-09-19T06:36:48;97189.74;;;6.85;100.00
45872;BME280;32333;55.844;-3.210;2023-09-19T06:39:16;97183.87;;;6.79;100.00
45872;BME280;32333;55.844;-3.210;2023-09-19T06:41:43;97179.01;;;7.01;100.00
45872;BME280;32333;55.844;-3.210;2023-09-19T06:44:36;97183.21;;;6.62;100.00
45872;BME280;32333;55.844;-3.210;2023-09-19T06:47:03;97182.12;;;6.88;100.00
45872;BME280;32333;55.844;-3.210;2023-09-19T06:49:31;97182.42;;;6.81;100.00
45872;BME280;32333;55.844;-3.210;2023-09-19T06:51:59;97191.22;;;6.14;100.00
45872;BME280;32333;55.844;-3.210;2023-09-19T06:54:27;97200.26;;;6.85;100.00
45872;BME280;32333;55.844;-3.210;2023-09-19T06:56:54;97192.06;;;6.51;100.00
45872;BME280;32333;55.844;-3.210;2023-09-19T06:59:22;97187.05;;;7.32;100.00
45872;BME280;32333;55.844;-3.210;2023-09-19T07:01:50;97192.70;;;6.98;100.00
45872;BME280;32333;55.844;-3.210;2023-09-19T07:04:17;97190.85;;;7.15;100.00
45872;BME280;32333;55.844;-3.210;2023-09-19T07:06:46;97185.00;;;7.01;100.00
45872;BME280;32333;55.844;-3.210;2023-09-19T07:09:16;97180.65;;;6.64;100.00
45872;BME280;32333;55.844;-3.210;2023-09-19T07:11:44;97168.50;;;6.43;100.00
45872;BME280;32333;55.844;-3.210;2023-09-19T07:14:39;97166.66;;;6.52;100.00
45872;BME280;32333;55.844;-3.210;2023-09-19T07:17:06;97164.53;;;6.44;100.00
45872;BME280;32333;55.844;-3.210;2023-09-19T07:19:33;97164.58;;;6.13;100.00
45872;BME280;32333;55.844;-3.210;2023-09-19T07:22:02;97169.01;;;6.35;100.00
45872;BME280;32333;55.844;-3.210;2023-09-19T07:24:30;97166.09;;;6.32;100.00
45872;BME280;32333;55.844;-3.210;2023-09-19T07:26:58;97163.54;;;5.41;100.00
45872;BME280;32333;55.844;-3.210;2023-09-19T07:29:25;97159.24;;;6.21;100.00
45872;BME280;32333;55.844;-3.210;2023-09-19T07:31:55;97143.86;;;6.19;100.00
45872;BME280;32333;55.844;-3.210;2023-09-19T07:34:23;97144.04;;;6.33;100.00
45872;BME280;32333;55.844;-3.210;2023-09-19T07:36:51;97134.63;;;5.88;100.00
45872;BME280;32333;55.844;-3.210;2023-09-19T07:39:20;97134.20;;;5.40;100.00
45872;BME280;32333;55.844;-3.210;2023-09-19T07:41:47;97138.99;;;5.97;100.00
45872;BME280;32333;55.844;-3.210;2023-09-19T07:44:36;97138.91;;;6.13;100.00
45872;BME280;32333;55.844;-3.210;2023-09-19T07:47:05;97128.84;;;7.08;100.00
45872;BME280;32333;55.844;-3.210;2023-09-19T07:49:33;97118.74;;;6.49;100.00
45872;BME280;32333;55.844;-3.210;2023-09-19T07:52:02;97136.15;;;6.62;100.00
45872;BME280;32333;55.844;-3.210;2023-09-19T07:54:30;97136.34;;;7.42;100.00
45872;BME280;32333;55.844;-3.210;2023-09-19T07:56:58;97143.96;;;6.85;100.00
45872;BME280;32333;55.844;-3.210;2023-09-19T07:59:25;97141.64;;;6.75;100.00
45872;BME280;32333;55.844;-3.210;2023-09-19T08:01:53;97141.20;;;6.37;100.00
45872;BME280;32333;55.844;-3.210;2023-09-19T08:04:22;97139.09;;;6.71;100.00
45872;BME280;32333;55.844;-3.210;2023-09-19T08:06:51;97123.55;;;6.70;100.00
45872;BME280;32333;55.844;-3.210;2023-09-19T08:09:21;97121.11;;;7.09;100.00
45872;BME280;32333;55.844;-3.210;2023-09-19T08:11:49;97114.62;;;7.78;100.00
45872;BME280;32333;55.844;-3.210;2023-09-19T08:14:37;97114.95;;;7.14;100.00
45872;BME280;32333;55.844;-3.210;2023-09-19T08:17:05;97105.64;;;7.50;100.00
45872;BME280;32333;55.844;-3.210;2023-09-19T08:19:35;97111.16;;;7.42;100.00
45872;BME280;32333;55.844;-3.210;2023-09-19T08:22:03;97103.39;;;7.85;100.00
45872;BME280;32333;55.844;-3.210;2023-09-19T08:24:56;97101.64;;;7.56;100.00
45872;BME280;32333;55.844;-3.210;2023-09-19T08:27:24;97102.48;;;7.66;100.00
45872;BME280;32333;55.844;-3.210;2023-09-19T08:29:56;97106.69;;;8.07;100.00
45872;BME280;32333;55.844;-3.210;2023-09-19T08:32:26;97108.06;;;7.29;100.00
45872;BME280;32333;55.844;-3.210;2023-09-19T08:35:07;97117.23;;;7.34;100.00
45872;BME280;32333;55.844;-3.210;2023-09-19T08:39:39;97117.77;;;8.00;100.00
45872;BME280;32333;55.844;-3.210;2023-09-19T08:44:38;97112.60;;;8.38;100.00
45872;BME280;32333;55.844;-3.210;2023-09-19T08:47:10;97114.67;;;8.01;100.00
45872;BME280;32333;55.844;-3.210;2023-09-19T08:49:48;97116.41;;;8.60;100.00
45872;BME280;32333;55.844;-3.210;2023-09-19T08:52:26;97109.69;;;7.87;100.00
45872;BME280;32333;55.844;-3.210;2023-09-19T08:54:59;97097.39;;;7.70;100.00
45872;BME280;32333;55.844;-3.210;2023-09-19T08:57:29;97095.82;;;7.57;100.00
45872;BME280;32333;55.844;-3.210;2023-09-19T09:00:03;97084.87;;;7.65;100.00
45872;BME280;32333;55.844;-3.210;2023-09-19T09:02:32;97091.28;;;7.54;100.00
45872;BME280;32333;55.844;-3.210;2023-09-19T09:05:01;97089.02;;;8.05;100.00
45872;BME280;32333;55.844;-3.210;2023-09-19T09:07:31;97085.74;;;8.40;100.00
45872;BME280;32333;55.844;-3.210;2023-09-19T09:10:00;97080.66;;;8.15;100.00
45872;BME280;32333;55.844;-3.210;2023-09-19T09:14:34;97081.97;;;8.14;100.00
45872;BME280;32333;55.844;-3.210;2023-09-19T09:17:02;97081.89;;;8.09;100.00
45872;BME280;32333;55.844;-3.210;2023-09-19T09:19:31;97077.46;;;8.69;100.00
45872;BME280;32333;55.844;-3.210;2023-09-19T09:22:07;97079.20;;;8.29;100.00
45872;BME280;32333;55.844;-3.210;2023-09-19T09:24:34;97076.42;;;7.58;100.00
45872;BME280;32333;55.844;-3.210;2023-09-19T09:27:03;97072.24;;;7.97;100.00
45872;BME280;32333;55.844;-3.210;2023-09-19T09:29:49;97080.22;;;8.40;100.00
45872;BME280;32333;55.844;-3.210;2023-09-19T09:32:18;97076.34;;;8.46;100.00
45872;BME280;32333;55.844;-3.210;2023-09-19T09:34:48;97075.72;;;8.66;100.00
45872;BME280;32333;55.844;-3.210;2023-09-19T09:37:17;97055.99;;;9.29;100.00
45872;BME280;32333;55.844;-3.210;2023-09-19T09:39:49;97056.62;;;9.65;100.00
45872;BME280;32333;55.844;-3.210;2023-09-19T09:44:35;97050.09;;;10.73;100.00
45872;BME280;32333;55.844;-3.210;2023-09-19T09:47:02;97051.11;;;10.45;100.00
45872;BME280;32333;55.844;-3.210;2023-09-19T09:49:30;97049.78;;;10.11;100.00
45872;BME280;32333;55.844;-3.210;2023-09-19T09:52:00;97051.08;;;9.77;100.00
45872;BME280;32333;55.844;-3.210;2023-09-19T09:54:29;97056.38;;;9.54;100.00
45872;BME280;32333;55.844;-3.210;2023-09-19T09:56:58;97054.00;;;10.43;100.00
45872;BME280;32333;55.844;-3.210;2023-09-19T09:59:59;97052.60;;;10.07;100.00
45872;BME280;32333;55.844;-3.210;2023-09-19T10:02:29;97056.40;;;10.52;100.00
45872;BME280;32333;55.844;-3.210;2023-09-19T10:04:57;97054.74;;;10.49;100.00
45872;BME280;32333;55.844;-3.210;2023-09-19T10:07:26;97052.46;;;10.71;100.00
45872;BME280;32333;55.844;-3.210;2023-09-19T10:09:53;97057.65;;;10.68;100.00
45872;BME280;32333;55.844;-3.210;2023-09-19T10:14:38;97047.00;;;10.82;100.00
45872;BME280;32333;55.844;-3.210;2023-09-19T10:17:06;97043.13;;;11.40;100.00
45872;BME280;32333;55.844;-3.210;2023-09-19T10:19:40;97045.84;;;10.91;100.00
45872;BME280;32333;55.844;-3.210;2023-09-19T10:22:09;97057.94;;;10.79;100.00
45872;BME280;32333;55.844;-3.210;2023-09-19T10:24:38;97057.46;;;10.21;100.00
45872;BME280;32333;55.844;-3.210;2023-09-19T10:27:07;97056.77;;;10.12;100.00
45872;BME280;32333;55.844;-3.210;2023-09-19T10:29:34;97048.90;;;10.91;100.00
45872;BME280;32333;55.844;-3.210;2023-09-19T10:32:04;97044.09;;;11.34;100.00
45872;BME280;32333;55.844;-3.210;2023-09-19T10:34:35;97045.01;;;10.96;100.00
45872;BME280;32333;55.844;-3.210;2023-09-19T10:37:04;97052.81;;;11.46;100.00
45872;BME280;32333;55.844;-3.210;2023-09-19T10:39:32;97049.60;;;11.12;100.00
45872;BME280;32333;55.844;-3.210;2023-09-19T10:44:38;97048.52;;;11.65;100.00
45872;BME280;32333;55.844;-3.210;2023-09-19T10:47:09;97047.73;;;11.60;100.00
45872;BME280;32333;55.844;-3.210;2023-09-19T10:49:44;97050.01;;;11.16;100.00
45872;BME280;32333;55.844;-3.210;2023-09-19T10:52:13;97046.83;;;11.70;100.00
45872;BME280;32333;55.844;-3.210;2023-09-19T10:54:45;97046.62;;;11.34;100.00
45872;BME280;32333;55.844;-3.210;2023-09-19T10:57:19;97049.18;;;11.71;100.00
45872;BME280;32333;55.844;-3.210;2023-09-19T11:00:02;97055.82;;;10.79;100.00
45872;BME280;32333;55.844;-3.210;2023-09-19T11:02:30;97056.91;;;10.70;100.00
45872;BME280;32333;55.844;-3.210;2023-09-19T11:05:11;97066.13;;;11.39;100.00
45872;BME280;32333;55.844;-3.210;2023-09-19T11:07:57;97067.03;;;10.64;100.00
45872;BME280;32333;55.844;-3.210;2023-09-19T11:11:01;97070.01;;;10.20;100.00
45872;BME280;32333;55.844;-3.210;2023-09-19T11:14:39;97071.12;;;10.67;100.00
45872;BME280;32333;55.844;-3.210;2023-09-19T11:17:40;97074.27;;;11.18;100.00
45872;BME280;32333;55.844;-3.210;2023-09-19T11:20:23;97074.06;;;11.22;100.00
45872;BME280;32333;55.844;-3.210;2023-09-19T11:23:23;97087.48;;;11.80;100.00
45872;BME280;32333;55.844;-3.210;2023-09-19T11:25:51;97090.91;;;10.65;100.00
45872;BME280;32333;55.844;-3.210;2023-09-19T11:28:34;97090.46;;;12.07;100.00
45872;BME280;32333;55.844;-3.210;2023-09-19T11:31:43;97088.34;;;11.75;100.00
45872;BME280;32333;55.844;-3.210;2023-09-19T11:34:39;97092.40;;;10.57;100.00
45872;BME280;32333;55.844;-3.210;2023-09-19T11:37:59;97088.94;;;10.92;100.00
45872;BME280;32333;55.844;-3.210;2023-09-19T11:40:27;97096.22;;;10.47;100.00
45872;BME280;32333;55.844;-3.210;2023-09-19T11:44:34;97102.35;;;10.71;100.00
45872;BME280;32333;55.844;-3.210;2023-09-19T11:47:02;97097.26;;;10.67;100.00
45872;BME280;32333;55.844;-3.210;2023-09-19T11:49:32;97086.52;;;10.60;100.00
45872;BME280;32333;55.844;-3.210;2023-09-19T11:52:01;97090.70;;;11.02;100.00
45872;BME280;32333;55.844;-3.210;2023-09-19T11:54:30;97090.37;;;11.16;100.00
45872;BME280;32333;55.844;-3.210;2023-09-19T11:57:00;97092.67;;;11.04;100.00
45872;BME280;32333;55.844;-3.210;2023-09-19T11:59:28;97101.60;;;11.10;100.00
45872;BME280;32333;55.844;-3.210;2023-09-19T12:01:59;97090.61;;;11.27;100.00
45872;BME280;32333;55.844;-3.210;2023-09-19T12:04:37;97084.55;;;11.86;100.00
45872;BME280;32333;55.844;-3.210;2023-09-19T12:07:07;97087.22;;;11.67;100.00
45872;BME280;32333;55.844;-3.210;2023-09-19T12:09:34;97089.50;;;11.85;100.00
45872;BME280;32333;55.844;-3.210;2023-09-19T12:14:35;97101.28;;;11.67;100.00
45872;BME280;32333;55.844;-3.210;2023-09-19T12:17:03;97103.44;;;11.95;100.00
45872;BME280;32333;55.844;-3.210;2023-09-19T12:19:31;97094.50;;;12.29;100.00
45872;BME280;32333;55.844;-3.210;2023-09-19T12:22:00;97097.44;;;12.04;100.00
45872;BME280;32333;55.844;-3.210;2023-09-19T12:24:28;97095.13;;;12.46;100.00
45872;BME280;32333;55.844;-3.210;2023-09-19T12:27:02;97088.95;;;11.95;100.00
45872;BME280;32333;55.844;-3.210;2023-09-19T12:29:31;97096.48;;;11.50;100.00
45872;BME280;32333;55.844;-3.210;2023-09-19T12:31:59;97090.84;;;11.90;100.00
45872;BME280;32333;55.844;-3.210;2023-09-19T12:34:29;97091.24;;;10.36;100.00
45872;BME280;32333;55.844;-3.210;2023-09-19T12:37:08;97093.33;;;10.52;100.00
45872;BME280;32333;55.844;-3.210;2023-09-19T12:39:38;97092.36;;;11.77;100.00
45872;BME280;32333;55.844;-3.210;2023-09-19T12:44:36;97103.15;;;11.85;100.00
45872;BME280;32333;55.844;-3.210;2023-09-19T12:47:10;97101.87;;;12.37;100.00
45872;BME280;32333;55.844;-3.210;2023-09-19T12:50:06;97102.25;;;13.09;100.00
45872;BME280;32333;55.844;-3.210;2023-09-19T12:52:36;97097.25;;;12.63;100.00
45872;BME280;32333;55.844;-3.210;2023-09-19T12:55:05;97097.42;;;13.49;100.00
45872;BME280;32333;55.844;-3.210;2023-09-19T12:57:33;97099.26;;;12.60;100.00
45872;BME280;32333;55.844;-3.210;2023-09-19T13:00:02;97096.15;;;12.56;100.00
45872;BME280;32333;55.844;-3.210;2023-09-19T13:02:30;97101.91;;;12.26;100.00
45872;BME280;32333;55.844;-3.210;2023-09-19T13:04:58;97098.61;;;10.62;100.00
45872;BME280;32333;55.844;-3.210;2023-09-19T13:07:43;97101.03;;;12.39;100.00
45872;BME280;32333;55.844;-3.210;2023-09-19T13:10:10;97104.76;;;12.19;100.00
45872;BME280;32333;55.844;-3.210;2023-09-19T13:14:35;97110.40;;;11.58;100.00
45872;BME280;32333;55.844;-3.210;2023-09-19T13:17:06;97111.47;;;10.94;100.00
45872;BME280;32333;55.844;-3.210;2023-09-19T13:19:38;97116.66;;;11.78;100.00
45872;BME280;32333;55.844;-3.210;2023-09-19T13:22:36;97122.71;;;11.91;100.00
45872;BME280;32333;55.844;-3.210;2023-09-19T13:25:05;97118.29;;;11.63;100.00
45872;BME280;32333;55.844;-3.210;2023-09-19T13:27:33;97109.53;;;11.73;100.00
45872;BME280;32333;55.844;-3.210;2023-09-19T13:30:02;97113.90;;;11.26;100.00
45872;BME280;32333;55.844;-3.210;2023-09-19T13:32:29;97109.01;;;10.74;100.00
45872;BME280;32333;55.844;-3.210;2023-09-19T13:34:57;97104.75;;;10.44;100.00
45872;BME280;32333;55.844;-3.210;2023-09-19T13:37:25;97108.54;;;10.46;100.00
45872;BME280;32333;55.844;-3.210;2023-09-19T13:39:53;97105.03;;;10.77;100.00